Impacts TAF Board
For situational awareness. Not to be used for flight planning purposes.
IDs:

KCSM - Clinton/Sherman Arpt, OK, US

Issued at 0520 UTC 18 Jan 2022
Updated at 1008 UTC 18 Jan 2022
Potential Impact None Slight Moderate High
Time<<18/23Z 19/00Z 19/01Z 19/02Z 19/03Z 19/04Z 19/05Z 19/06Z 19/07Z 19/08Z 19/09Z 19/10Z 19/11Z>>
Type PRVL PRVL PRVL PRVL PRVL PRVL PRVL
VIS >6 >6 >6 >6 >6 >6 >6
CIG -- -- -- -- -- -- --
Cover SCT SCT SCT SCT SCT SCT SCT
FltCat VFR VFR VFR VFR VFR VFR VFR
WX -- -- -- -- -- -- --
WDir 340 340 340 340 340 340 340
WSpd 10 10 10 10 10 10 10
WGst -- -- -- -- -- -- --
WSHgt -- -- -- -- -- -- --
WSDir -- -- -- -- -- -- --
WSSpd -- -- -- -- -- -- --
R17/35
XWnd -3 -3 -3 -3 -3 -3 -3 0 0 0 0 0 0
HWnd -9 -9 -9 -9 -9 -9 -9 0 0 0 0 0 0
Raw TAF
KCSM 180520Z 1806/1906 17014KT P6SM BKN250
  FM181500 22012KT P6SM SCT150 BKN250
  FM182200 34010KT P6SM SCT150


METAR Board
Radar Display
Forecast Discussion
For situational awareness. Not to be used for flight planning purposes.